sensor_id;sensor_type;location;lat;lon;timestamp;pressure;altitude;pressure_sealevel;temperature
76895;BMP280;65855;42.030;13.078;2023-04-03T00:02:11;92768.84;;;8.22
76895;BMP280;65855;42.030;13.078;2023-04-03T00:04:37;92767.34;;;8.21
76895;BMP280;65855;42.030;13.078;2023-04-03T00:07:02;92762.16;;;8.31
76895;BMP280;65855;42.030;13.078;2023-04-03T00:09:28;92770.91;;;8.20
76895;BMP280;65855;42.030;13.078;2023-04-03T00:11:53;92766.72;;;7.90
76895;BMP280;65855;42.030;13.078;2023-04-03T00:14:18;92762.34;;;7.95
76895;BMP280;65855;42.030;13.078;2023-04-03T00:16:44;92759.94;;;7.90
76895;BMP280;65855;42.030;13.078;2023-04-03T00:19:09;92746.63;;;8.03
76895;BMP280;65855;42.030;13.078;2023-04-03T00:21:37;92744.44;;;8.49
76895;BMP280;65855;42.030;13.078;2023-04-03T00:24:02;92742.88;;;8.62
76895;BMP280;65855;42.030;13.078;2023-04-03T00:26:28;92742.47;;;8.12
76895;BMP280;65855;42.030;13.078;2023-04-03T00:28:53;92734.00;;;8.77
76895;BMP280;65855;42.030;13.078;2023-04-03T00:31:19;92736.25;;;8.87
76895;BMP280;65855;42.030;13.078;2023-04-03T00:33:44;92734.94;;;8.68
76895;BMP280;65855;42.030;13.078;2023-04-03T00:36:10;92733.19;;;8.68
76895;BMP280;65855;42.030;13.078;2023-04-03T00:38:36;92735.59;;;8.95
76895;BMP280;65855;42.030;13.078;2023-04-03T00:41:02;92696.97;;;9.21
76895;BMP280;65855;42.030;13.078;2023-04-03T00:43:28;92673.34;;;9.38
76895;BMP280;65855;42.030;13.078;2023-04-03T00:45:56;92703.28;;;9.40
76895;BMP280;65855;42.030;13.078;2023-04-03T00:50:49;92712.44;;;8.85
76895;BMP280;65855;42.030;13.078;2023-04-03T00:53:23;92704.53;;;8.99
76895;BMP280;65855;42.030;13.078;2023-04-03T00:55:50;92703.81;;;8.99
76895;BMP280;65855;42.030;13.078;2023-04-03T00:58:18;92715.25;;;9.13
76895;BMP280;65855;42.030;13.078;2023-04-03T01:00:48;92706.72;;;9.14
76895;BMP280;65855;42.030;13.078;2023-04-03T01:03:17;92698.66;;;9.04
76895;BMP280;65855;42.030;13.078;2023-04-03T01:05:43;92703.44;;;8.84
76895;BMP280;65855;42.030;13.078;2023-04-03T01:08:08;92684.03;;;8.76
76895;BMP280;65855;42.030;13.078;2023-04-03T01:10:34;92695.03;;;8.66
76895;BMP280;65855;42.030;13.078;2023-04-03T01:13:00;92685.22;;;8.78
76895;BMP280;65855;42.030;13.078;2023-04-03T01:15:27;92702.47;;;8.71
76895;BMP280;65855;42.030;13.078;2023-04-03T01:17:58;92690.88;;;9.13
76895;BMP280;65855;42.030;13.078;2023-04-03T01:25:22;92697.22;;;9.11
76895;BMP280;65855;42.030;13.078;2023-04-03T01:27:49;92683.47;;;9.09
76895;BMP280;65855;42.030;13.078;2023-04-03T01:30:17;92674.50;;;9.24
76895;BMP280;65855;42.030;13.078;2023-04-03T01:32:43;92682.47;;;9.18
76895;BMP280;65855;42.030;13.078;2023-04-03T01:35:09;92664.28;;;8.91
76895;BMP280;65855;42.030;13.078;2023-04-03T01:37:34;92686.22;;;8.99
76895;BMP280;65855;42.030;13.078;2023-04-03T01:40:00;92669.53;;;9.03
76895;BMP280;65855;42.030;13.078;2023-04-03T01:42:25;92694.66;;;9.03
76895;BMP280;65855;42.030;13.078;2023-04-03T01:44:51;92668.63;;;9.37
76895;BMP280;65855;42.030;13.078;2023-04-03T01:47:16;92678.88;;;9.49
76895;BMP280;65855;42.030;13.078;2023-04-03T01:49:42;92688.44;;;9.30
76895;BMP280;65855;42.030;13.078;2023-04-03T01:52:07;92672.94;;;9.07
76895;BMP280;65855;42.030;13.078;2023-04-03T01:54:32;92667.22;;;9.14
76895;BMP280;65855;42.030;13.078;2023-04-03T01:56:58;92679.25;;;8.96
76895;BMP280;65855;42.030;13.078;2023-04-03T01:59:23;92684.72;;;8.98
76895;BMP280;65855;42.030;13.078;2023-04-03T02:01:49;92674.34;;;8.91
76895;BMP280;65855;42.030;13.078;2023-04-03T02:04:14;92674.75;;;8.85
76895;BMP280;65855;42.030;13.078;2023-04-03T02:06:40;92658.19;;;8.84
76895;BMP280;65855;42.030;13.078;2023-04-03T02:09:06;92665.00;;;8.83
76895;BMP280;65855;42.030;13.078;2023-04-03T02:11:32;92663.63;;;8.77
76895;BMP280;65855;42.030;13.078;2023-04-03T02:13:57;92649.72;;;8.71
76895;BMP280;65855;42.030;13.078;2023-04-03T02:16:23;92647.22;;;8.80
76895;BMP280;65855;42.030;13.078;2023-04-03T02:18:48;92646.84;;;9.24
76895;BMP280;65855;42.030;13.078;2023-04-03T02:21:15;92643.28;;;9.17
76895;BMP280;65855;42.030;13.078;2023-04-03T02:23:40;92641.91;;;9.11
76895;BMP280;65855;42.030;13.078;2023-04-03T02:26:08;92645.75;;;9.09
76895;BMP280;65855;42.030;13.078;2023-04-03T02:28:34;92637.53;;;9.25
76895;BMP280;65855;42.030;13.078;2023-04-03T02:30:59;92631.19;;;9.27
76895;BMP280;65855;42.030;13.078;2023-04-03T02:33:25;92646.81;;;9.16
76895;BMP280;65855;42.030;13.078;2023-04-03T02:35:55;92621.50;;;9.12
76895;BMP280;65855;42.030;13.078;2023-04-03T02:38:21;92637.06;;;9.14
76895;BMP280;65855;42.030;13.078;2023-04-03T02:40:46;92636.53;;;9.34
76895;BMP280;65855;42.030;13.078;2023-04-03T02:43:12;92631.28;;;9.14
76895;BMP280;65855;42.030;13.078;2023-04-03T02:45:37;92640.53;;;8.97
76895;BMP280;65855;42.030;13.078;2023-04-03T02:48:03;92630.59;;;8.92
76895;BMP280;65855;42.030;13.078;2023-04-03T02:50:29;92634.41;;;8.81
76895;BMP280;65855;42.030;13.078;2023-04-03T02:52:54;92629.44;;;8.98
76895;BMP280;65855;42.030;13.078;2023-04-03T02:55:20;92615.41;;;8.97
76895;BMP280;65855;42.030;13.078;2023-04-03T02:57:45;92615.97;;;9.40
76895;BMP280;65855;42.030;13.078;2023-04-03T03:00:11;92610.47;;;9.22
76895;BMP280;65855;42.030;13.078;2023-04-03T03:02:37;92626.34;;;9.39
76895;BMP280;65855;42.030;13.078;2023-04-03T03:05:02;92619.53;;;9.39
76895;BMP280;65855;42.030;13.078;2023-04-03T03:07:28;92604.88;;;9.41
76895;BMP280;65855;42.030;13.078;2023-04-03T03:09:53;92614.56;;;9.10
76895;BMP280;65855;42.030;13.078;2023-04-03T03:12:19;92621.09;;;9.19
76895;BMP280;65855;42.030;13.078;2023-04-03T03:14:49;92609.41;;;9.23
76895;BMP280;65855;42.030;13.078;2023-04-03T03:17:15;92593.94;;;8.99
76895;BMP280;65855;42.030;13.078;2023-04-03T03:19:40;92598.31;;;9.15
76895;BMP280;65855;42.030;13.078;2023-04-03T03:22:06;92590.94;;;9.27
76895;BMP280;65855;42.030;13.078;2023-04-03T03:24:31;92590.03;;;9.23
76895;BMP280;65855;42.030;13.078;2023-04-03T03:26:57;92586.00;;;9.06
76895;BMP280;65855;42.030;13.078;2023-04-03T03:29:22;92583.34;;;9.11
76895;BMP280;65855;42.030;13.078;2023-04-03T03:31:47;92592.66;;;9.02
76895;BMP280;65855;42.030;13.078;2023-04-03T03:34:13;92578.63;;;9.17
76895;BMP280;65855;42.030;13.078;2023-04-03T03:36:39;92597.28;;;9.25
76895;BMP280;65855;42.030;13.078;2023-04-03T03:39:04;92597.16;;;9.21
76895;BMP280;65855;42.030;13.078;2023-04-03T03:41:30;92592.25;;;9.16
76895;BMP280;65855;42.030;13.078;2023-04-03T03:43:56;92597.44;;;9.20
76895;BMP280;65855;42.030;13.078;2023-04-03T03:46:21;92586.06;;;9.31
76895;BMP280;65855;42.030;13.078;2023-04-03T03:48:47;92590.31;;;9.13
76895;BMP280;65855;42.030;13.078;2023-04-03T03:51:12;92569.97;;;9.40
76895;BMP280;65855;42.030;13.078;2023-04-03T03:53:38;92593.00;;;9.25
76895;BMP280;65855;42.030;13.078;2023-04-03T03:56:04;92587.84;;;9.30
76895;BMP280;65855;42.030;13.078;2023-04-03T03:58:30;92599.53;;;9.35
76895;BMP280;65855;42.030;13.078;2023-04-03T04:00:56;92592.00;;;9.35
76895;BMP280;65855;42.030;13.078;2023-04-03T04:03:22;92591.53;;;9.24
76895;BMP280;65855;42.030;13.078;2023-04-03T04:05:47;92575.50;;;9.12
76895;BMP280;65855;42.030;13.078;2023-04-03T04:08:12;92597.28;;;9.25
76895;BMP280;65855;42.030;13.078;2023-04-03T04:10:38;92596.13;;;9.31
76895;BMP280;65855;42.030;13.078;2023-04-03T04:13:03;92589.72;;;9.16
76895;BMP280;65855;42.030;13.078;2023-04-03T04:15:29;92589.91;;;9.20
76895;BMP280;65855;42.030;13.078;2023-04-03T04:17:55;92582.63;;;9.18
76895;BMP280;65855;42.030;13.078;2023-04-03T04:20:20;92581.69;;;9.06
76895;BMP280;65855;42.030;13.078;2023-04-03T04:22:45;92586.66;;;9.28
76895;BMP280;65855;42.030;13.078;2023-04-03T04:25:11;92594.56;;;9.05
76895;BMP280;65855;42.030;13.078;2023-04-03T04:27:37;92575.00;;;8.93
76895;BMP280;65855;42.030;13.078;2023-04-03T04:30:03;92586.16;;;9.01
76895;BMP280;65855;42.030;13.078;2023-04-03T04:32:29;92578.91;;;9.08
76895;BMP280;65855;42.030;13.078;2023-04-03T04:34:55;92574.22;;;9.23
76895;BMP280;65855;42.030;13.078;2023-04-03T04:37:20;92575.25;;;9.13
76895;BMP280;65855;42.030;13.078;2023-04-03T04:39:46;92574.25;;;8.93
76895;BMP280;65855;42.030;13.078;2023-04-03T04:42:12;92573.81;;;8.91
76895;BMP280;65855;42.030;13.078;2023-04-03T04:44:38;92590.91;;;8.72
76895;BMP280;65855;42.030;13.078;2023-04-03T04:47:04;92589.50;;;8.88
76895;BMP280;65855;42.030;13.078;2023-04-03T04:49:29;92580.97;;;8.67
76895;BMP280;65855;42.030;13.078;2023-04-03T04:51:55;92573.16;;;8.39
76895;BMP280;65855;42.030;13.078;2023-04-03T04:54:20;92581.00;;;8.46
76895;BMP280;65855;42.030;13.078;2023-04-03T04:56:46;92591.72;;;8.30
76895;BMP280;65855;42.030;13.078;2023-04-03T04:59:12;92593.63;;;8.33
76895;BMP280;65855;42.030;13.078;2023-04-03T05:01:37;92596.38;;;8.23
76895;BMP280;65855;42.030;13.078;2023-04-03T05:04:03;92583.03;;;8.65
76895;BMP280;65855;42.030;13.078;2023-04-03T05:06:28;92577.50;;;8.85
76895;BMP280;65855;42.030;13.078;2023-04-03T05:08:55;92580.97;;;8.67
76895;BMP280;65855;42.030;13.078;2023-04-03T05:11:21;92573.31;;;8.72
76895;BMP280;65855;42.030;13.078;2023-04-03T05:13:46;92584.91;;;8.60
76895;BMP280;65855;42.030;13.078;2023-04-03T05:16:12;92585.09;;;8.63
76895;BMP280;65855;42.030;13.078;2023-04-03T05:18:37;92573.75;;;8.74
76895;BMP280;65855;42.030;13.078;2023-04-03T05:21:03;92571.78;;;8.63
76895;BMP280;65855;42.030;13.078;2023-04-03T05:23:28;92586.78;;;8.76
76895;BMP280;65855;42.030;13.078;2023-04-03T05:25:54;92587.81;;;8.45
76895;BMP280;65855;42.030;13.078;2023-04-03T05:28:19;92570.34;;;8.40
76895;BMP280;65855;42.030;13.078;2023-04-03T05:30:45;92576.44;;;8.48
76895;BMP280;65855;42.030;13.078;2023-04-03T05:33:10;92573.91;;;8.48
76895;BMP280;65855;42.030;13.078;2023-04-03T05:35:37;92573.03;;;8.44
76895;BMP280;65855;42.030;13.078;2023-04-03T05:38:07;92577.06;;;8.53
76895;BMP280;65855;42.030;13.078;2023-04-03T05:40:32;92567.63;;;8.59
76895;BMP280;65855;42.030;13.078;2023-04-03T05:42:58;92562.41;;;8.85
76895;BMP280;65855;42.030;13.078;2023-04-03T05:45:23;92567.97;;;8.65
76895;BMP280;65855;42.030;13.078;2023-04-03T05:47:48;92559.56;;;8.70
76895;BMP280;65855;42.030;13.078;2023-04-03T05:50:14;92553.63;;;9.04
76895;BMP280;65855;42.030;13.078;2023-04-03T05:52:44;92560.47;;;9.37
76895;BMP280;65855;42.030;13.078;2023-04-03T05:55:10;92561.00;;;9.89
76895;BMP280;65855;42.030;13.078;2023-04-03T05:57:36;92552.53;;;10.18
76895;BMP280;65855;42.030;13.078;2023-04-03T06:00:02;92547.97;;;10.65
76895;BMP280;65855;42.030;13.078;2023-04-03T06:02:28;92532.22;;;10.77
76895;BMP280;65855;42.030;13.078;2023-04-03T06:04:53;92546.00;;;10.79
76895;BMP280;65855;42.030;13.078;2023-04-03T06:07:21;92545.94;;;10.96
76895;BMP280;65855;42.030;13.078;2023-04-03T06:09:48;92547.78;;;11.15
76895;BMP280;65855;42.030;13.078;2023-04-03T06:12:14;92561.06;;;11.24
76895;BMP280;65855;42.030;13.078;2023-04-03T06:14:40;92564.31;;;11.33
76895;BMP280;65855;42.030;13.078;2023-04-03T06:17:06;92552.41;;;11.42
76895;BMP280;65855;42.030;13.078;2023-04-03T06:19:32;92555.25;;;11.60
76895;BMP280;65855;42.030;13.078;2023-04-03T06:21:58;92547.59;;;12.09
76895;BMP280;65855;42.030;13.078;2023-04-03T06:24:23;92558.09;;;12.31
76895;BMP280;65855;42.030;13.078;2023-04-03T06:26:50;92556.81;;;12.25
76895;BMP280;65855;42.030;13.078;2023-04-03T06:29:17;92555.97;;;12.01
76895;BMP280;65855;42.030;13.078;2023-04-03T06:31:43;92570.75;;;12.11
76895;BMP280;65855;42.030;13.078;2023-04-03T06:34:08;92557.91;;;12.36
76895;BMP280;65855;42.030;13.078;2023-04-03T06:36:34;92553.09;;;12.74
76895;BMP280;65855;42.030;13.078;2023-04-03T06:39:00;92546.25;;;12.98
76895;BMP280;65855;42.030;13.078;2023-04-03T06:41:26;92560.16;;;13.04
76895;BMP280;65855;42.030;13.078;2023-04-03T06:43:52;92537.50;;;13.20
76895;BMP280;65855;42.030;13.078;2023-04-03T06:46:20;92541.84;;;12.64
76895;BMP280;65855;42.030;13.078;2023-04-03T06:48:46;92570.34;;;12.41
76895;BMP280;65855;42.030;13.078;2023-04-03T06:51:22;92532.66;;;12.36
76895;BMP280;65855;42.030;13.078;2023-04-03T06:53:50;92527.19;;;12.46
76895;BMP280;65855;42.030;13.078;2023-04-03T06:56:16;92556.63;;;12.62
76895;BMP280;65855;42.030;13.078;2023-04-03T06:58:42;92567.47;;;12.62
76895;BMP280;65855;42.030;13.078;2023-04-03T07:01:09;92542.22;;;12.86
76895;BMP280;65855;42.030;13.078;2023-04-03T07:03:35;92559.34;;;12.69
76895;BMP280;65855;42.030;13.078;2023-04-03T07:06:02;92565.09;;;12.77
76895;BMP280;65855;42.030;13.078;2023-04-03T07:08:28;92557.19;;;12.79
76895;BMP280;65855;42.030;13.078;2023-04-03T07:10:54;92565.88;;;13.25
76895;BMP280;65855;42.030;13.078;2023-04-03T07:13:20;92562.16;;;12.75
76895;BMP280;65855;42.030;13.078;2023-04-03T07:15:45;92563.84;;;12.83
76895;BMP280;65855;42.030;13.078;2023-04-03T07:18:10;92567.22;;;13.11
76895;BMP280;65855;42.030;13.078;2023-04-03T07:20:36;92566.88;;;12.77
76895;BMP280;65855;42.030;13.078;2023-04-03T07:23:01;92562.22;;;12.79
76895;BMP280;65855;42.030;13.078;2023-04-03T07:25:28;92562.78;;;13.55
76895;BMP280;65855;42.030;13.078;2023-04-03T07:27:53;92563.22;;;13.45
76895;BMP280;65855;42.030;13.078;2023-04-03T07:30:20;92577.25;;;13.31
76895;BMP280;65855;42.030;13.078;2023-04-03T07:32:45;92586.28;;;13.79
76895;BMP280;65855;42.030;13.078;2023-04-03T07:35:11;92572.16;;;14.43
76895;BMP280;65855;42.030;13.078;2023-04-03T07:37:37;92578.25;;;14.27
76895;BMP280;65855;42.030;13.078;2023-04-03T07:40:03;92582.97;;;14.41
76895;BMP280;65855;42.030;13.078;2023-04-03T07:42:29;92563.31;;;13.60
76895;BMP280;65855;42.030;13.078;2023-04-03T07:44:54;92575.09;;;13.68
76895;BMP280;65855;42.030;13.078;2023-04-03T07:47:20;92583.75;;;13.67
76895;BMP280;65855;42.030;13.078;2023-04-03T07:49:46;92576.25;;;13.94
76895;BMP280;65855;42.030;13.078;2023-04-03T07:52:12;92568.09;;;14.00
76895;BMP280;65855;42.030;13.078;2023-04-03T07:54:39;92597.34;;;14.64
76895;BMP280;65855;42.030;13.078;2023-04-03T07:57:05;92612.75;;;15.28
76895;BMP280;65855;42.030;13.078;2023-04-03T07:59:31;92584.75;;;14.67
76895;BMP280;65855;42.030;13.078;2023-04-03T08:01:56;92573.38;;;14.91
76895;BMP280;65855;42.030;13.078;2023-04-03T08:04:22;92587.53;;;15.68
76895;BMP280;65855;42.030;13.078;2023-04-03T08:06:47;92589.81;;;15.39
76895;BMP280;65855;42.030;13.078;2023-04-03T08:09:15;92602.50;;;15.09
76895;BMP280;65855;42.030;13.078;2023-04-03T08:11:41;92584.41;;;15.26
76895;BMP280;65855;42.030;13.078;2023-04-03T08:14:07;92604.00;;;15.89
76895;BMP280;65855;42.030;13.078;2023-04-03T08:16:32;92582.00;;;15.48
76895;BMP280;65855;42.030;13.078;2023-04-03T08:18:58;92578.78;;;15.66
76895;BMP280;65855;42.030;13.078;2023-04-03T08:21:24;92589.94;;;16.29
76895;BMP280;65855;42.030;13.078;2023-04-03T08:23:50;92596.56;;;17.33
76895;BMP280;65855;42.030;13.078;2023-04-03T08:26:18;92602.41;;;18.36
76895;BMP280;65855;42.030;13.078;2023-04-03T08:28:44;92583.53;;;17.38
76895;BMP280;65855;42.030;13.078;2023-04-03T08:31:12;92602.81;;;18.12
76895;BMP280;65855;42.030;13.078;2023-04-03T08:33:39;92602.53;;;15.88
76895;BMP280;65855;42.030;13.078;2023-04-03T08:36:06;92588.66;;;15.22
76895;BMP280;65855;42.030;13.078;2023-04-03T08:38:32;92586.59;;;16.25
76895;BMP280;65855;42.030;13.078;2023-04-03T08:41:27;92588.03;;;16.63
76895;BMP280;65855;42.030;13.078;2023-04-03T08:44:03;92582.38;;;18.09
76895;BMP280;65855;42.030;13.078;2023-04-03T08:49:40;92588.63;;;16.76
76895;BMP280;65855;42.030;13.078;2023-04-03T08:52:14;92614.44;;;16.37
76895;BMP280;65855;42.030;13.078;2023-04-03T08:54:52;92598.38;;;17.33
76895;BMP280;65855;42.030;13.078;2023-04-03T08:57:40;92598.84;;;17.89
76895;BMP280;65855;42.030;13.078;2023-04-03T09:00:18;92604.88;;;17.31
76895;BMP280;65855;42.030;13.078;2023-04-03T09:02:46;92600.59;;;17.60
76895;BMP280;65855;42.030;13.078;2023-04-03T09:05:16;92600.50;;;18.62
76895;BMP280;65855;42.030;13.078;2023-04-03T09:07:48;92608.16;;;18.91
76895;BMP280;65855;42.030;13.078;2023-04-03T09:10:22;92615.94;;;18.40
76895;BMP280;65855;42.030;13.078;2023-04-03T09:15:33;92607.50;;;19.82
76895;BMP280;65855;42.030;13.078;2023-04-03T09:23:16;92640.38;;;18.41
76895;BMP280;65855;42.030;13.078;2023-04-03T09:25:43;92609.34;;;19.00
76895;BMP280;65855;42.030;13.078;2023-04-03T09:28:09;92597.50;;;17.73
76895;BMP280;65855;42.030;13.078;2023-04-03T09:30:35;92606.91;;;19.14
76895;BMP280;65855;42.030;13.078;2023-04-03T09:33:01;92594.03;;;19.46
76895;BMP280;65855;42.030;13.078;2023-04-03T09:35:31;92615.47;;;18.05
76895;BMP280;65855;42.030;13.078;2023-04-03T09:38:19;92593.31;;;18.71
76895;BMP280;65855;42.030;13.078;2023-04-03T09:40:48;92591.84;;;19.02
76895;BMP280;65855;42.030;13.078;2023-04-03T09:45:44;92586.81;;;21.09
76895;BMP280;65855;42.030;13.078;2023-04-03T09:53:39;92592.91;;;15.33
76895;BMP280;65855;42.030;13.078;2023-04-03T09:56:18;92577.78;;;19.22
76895;BMP280;65855;42.030;13.078;2023-04-03T09:59:07;92577.44;;;19.69
76895;BMP280;65855;42.030;13.078;2023-04-03T10:01:38;92566.19;;;19.34
76895;BMP280;65855;42.030;13.078;2023-04-03T10:04:18;92568.84;;;18.66
76895;BMP280;65855;42.030;13.078;2023-04-03T10:06:53;92573.97;;;19.48
76895;BMP280;65855;42.030;13.078;2023-04-03T10:09:30;92573.00;;;20.22
76895;BMP280;65855;42.030;13.078;2023-04-03T10:12:03;92592.69;;;19.16
76895;BMP280;65855;42.030;13.078;2023-04-03T10:14:31;92573.22;;;18.33
76895;BMP280;65855;42.030;13.078;2023-04-03T10:19:44;92587.13;;;19.99
76895;BMP280;65855;42.030;13.078;2023-04-03T10:22:45;92580.66;;;17.65
76895;BMP280;65855;42.030;13.078;2023-04-03T10:41:38;92569.16;;;18.65
76895;BMP280;65855;42.030;13.078;2023-04-03T10:46:54;92567.31;;;18.29
76895;BMP280;65855;42.030;13.078;2023-04-03T10:49:34;92573.41;;;18.51
76895;BMP280;65855;42.030;13.078;2023-04-03T10:52:45;92558.44;;;18.17
76895;BMP280;65855;42.030;13.078;2023-04-03T10:57:39;92557.91;;;21.05
76895;BMP280;65855;42.030;13.078;2023-04-03T11:00:15;92539.00;;;20.29
76895;BMP280;65855;42.030;13.078;2023-04-03T11:03:00;92566.94;;;19.35
76895;BMP280;65855;42.030;13.078;2023-04-03T11:08:07;92564.53;;;19.55
76895;BMP280;65855;42.030;13.078;2023-04-03T11:13:12;92537.69;;;20.52
76895;BMP280;65855;42.030;13.078;2023-04-03T11:15:39;92549.47;;;18.29
76895;BMP280;65855;42.030;13.078;2023-04-03T11:18:25;92542.25;;;19.56
76895;BMP280;65855;42.030;13.078;2023-04-03T11:23:39;92528.09;;;20.39
76895;BMP280;65855;42.030;13.078;2023-04-03T11:26:13;92531.84;;;20.69
76895;BMP280;65855;42.030;13.078;2023-04-03T11:28:40;92518.66;;;20.53
76895;BMP280;65855;42.030;13.078;2023-04-03T11:31:23;92546.09;;;18.87
76895;BMP280;65855;42.030;13.078;2023-04-03T11:36:44;92526.94;;;19.56
76895;BMP280;65855;42.030;13.078;2023-04-03T11:41:48;92528.13;;;20.46
76895;BMP280;65855;42.030;13.078;2023-04-03T11:46:58;92509.81;;;22.18
76895;BMP280;65855;42.030;13.078;2023-04-03T12:26:48;92538.38;;;18.83
76895;BMP280;65855;42.030;13.078;2023-04-03T12:39:59;92525.00;;;21.55
76895;BMP280;65855;42.030;13.078;2023-04-03T12:45:13;92533.69;;;18.21
76895;BMP280;65855;42.030;13.078;2023-04-03T12:47:42;92508.72;;;19.11
76895;BMP280;65855;42.030;13.078;2023-04-03T12:50:27;92513.06;;;19.07
76895;BMP280;65855;42.030;13.078;2023-04-03T12:53:06;92514.78;;;19.46
76895;BMP280;65855;42.030;13.078;2023-04-03T12:55:36;92504.88;;;18.52
76895;BMP280;65855;42.030;13.078;2023-04-03T12:58:27;92525.91;;;18.39
76895;BMP280;65855;42.030;13.078;2023-04-03T13:01:08;92511.19;;;18.29
76895;BMP280;65855;42.030;13.078;2023-04-03T13:03:37;92521.28;;;19.33
76895;BMP280;65855;42.030;13.078;2023-04-03T13:06:04;92519.72;;;18.79
76895;BMP280;65855;42.030;13.078;2023-04-03T13:08:30;92480.59;;;20.48
76895;BMP280;65855;42.030;13.078;2023-04-03T13:13:21;92511.63;;;20.33
76895;BMP280;65855;42.030;13.078;2023-04-03T13:15:48;92484.50;;;20.25
76895;BMP280;65855;42.030;13.078;2023-04-03T13:18:23;92498.25;;;21.28
76895;BMP280;65855;42.030;13.078;2023-04-03T13:20:50;92479.94;;;23.09
76895;BMP280;65855;42.030;13.078;2023-04-03T13:23:17;92483.59;;;24.30
76895;BMP280;65855;42.030;13.078;2023-04-03T13:25:46;92478.81;;;22.60
76895;BMP280;65855;42.030;13.078;2023-04-03T13:28:15;92517.25;;;20.86
76895;BMP280;65855;42.030;13.078;2023-04-03T13:33:24;92481.94;;;20.15
76895;BMP280;65855;42.030;13.078;2023-04-03T13:36:06;92492.31;;;20.56
76895;BMP280;65855;42.030;13.078;2023-04-03T13:38:33;92509.03;;;19.56
76895;BMP280;65855;42.030;13.078;2023-04-03T13:41:02;92514.47;;;20.14
76895;BMP280;65855;42.030;13.078;2023-04-03T13:43:35;92473.06;;;18.82
76895;BMP280;65855;42.030;13.078;2023-04-03T13:46:20;92497.41;;;19.16
76895;BMP280;65855;42.030;13.078;2023-04-03T13:48:50;92498.78;;;19.03
76895;BMP280;65855;42.030;13.078;2023-04-03T13:51:23;92499.94;;;18.02
76895;BMP280;65855;42.030;13.078;2023-04-03T13:56:23;92499.88;;;20.28
76895;BMP280;65855;42.030;13.078;2023-04-03T13:59:03;92478.09;;;21.54
76895;BMP280;65855;42.030;13.078;2023-04-03T14:04:30;92498.88;;;16.79
76895;BMP280;65855;42.030;13.078;2023-04-03T14:06:56;92490.72;;;20.21
76895;BMP280;65855;42.030;13.078;2023-04-03T14:09:24;92496.38;;;17.80
76895;BMP280;65855;42.030;13.078;2023-04-03T14:11:54;92494.25;;;19.92
76895;BMP280;65855;42.030;13.078;2023-04-03T14:14:23;92512.13;;;18.47
76895;BMP280;65855;42.030;13.078;2023-04-03T14:17:01;92500.47;;;14.73
76895;BMP280;65855;42.030;13.078;2023-04-03T14:19:33;92488.50;;;18.21
76895;BMP280;65855;42.030;13.078;2023-04-03T14:21:59;92459.00;;;18.59
76895;BMP280;65855;42.030;13.078;2023-04-03T14:24:25;92499.44;;;18.22
76895;BMP280;65855;42.030;13.078;2023-04-03T14:26:53;92496.28;;;17.45
76895;BMP280;65855;42.030;13.078;2023-04-03T14:29:22;92494.03;;;16.96
76895;BMP280;65855;42.030;13.078;2023-04-03T14:31:48;92485.75;;;18.36
76895;BMP280;65855;42.030;13.078;2023-04-03T14:34:15;92494.09;;;17.21
76895;BMP280;65855;42.030;13.078;2023-04-03T14:36:42;92474.16;;;16.35
76895;BMP280;65855;42.030;13.078;2023-04-03T14:39:16;92514.44;;;17.18
76895;BMP280;65855;42.030;13.078;2023-04-03T14:41:42;92455.06;;;16.66
76895;BMP280;65855;42.030;13.078;2023-04-03T14:44:07;92520.81;;;16.24
76895;BMP280;65855;42.030;13.078;2023-04-03T14:46:35;92509.28;;;16.92
76895;BMP280;65855;42.030;13.078;2023-04-03T14:49:02;92491.19;;;16.53
76895;BMP280;65855;42.030;13.078;2023-04-03T14:51:32;92517.84;;;16.03
76895;BMP280;65855;42.030;13.078;2023-04-03T14:53:58;92502.03;;;16.50
76895;BMP280;65855;42.030;13.078;2023-04-03T14:56:27;92502.75;;;17.68
76895;BMP280;65855;42.030;13.078;2023-04-03T14:58:59;92493.06;;;16.00
76895;BMP280;65855;42.030;13.078;2023-04-03T15:01:25;92499.66;;;15.00
76895;BMP280;65855;42.030;13.078;2023-04-03T15:03:51;92513.63;;;14.79
76895;BMP280;65855;42.030;13.078;2023-04-03T15:06:16;92506.63;;;13.14
76895;BMP280;65855;42.030;13.078;2023-04-03T15:08:43;92501.56;;;13.02
76895;BMP280;65855;42.030;13.078;2023-04-03T15:11:10;92520.72;;;12.92
76895;BMP280;65855;42.030;13.078;2023-04-03T15:13:36;92503.88;;;11.97
76895;BMP280;65855;42.030;13.078;2023-04-03T15:16:01;92491.38;;;12.44
76895;BMP280;65855;42.030;13.078;2023-04-03T15:18:31;92514.84;;;11.80
76895;BMP280;65855;42.030;13.078;2023-04-03T15:20:58;92502.28;;;12.24
76895;BMP280;65855;42.030;13.078;2023-04-03T15:23:23;92516.97;;;12.42
76895;BMP280;65855;42.030;13.078;2023-04-03T15:25:54;92524.22;;;11.80
76895;BMP280;65855;42.030;13.078;2023-04-03T15:28:35;92499.09;;;11.83
76895;BMP280;65855;42.030;13.078;2023-04-03T15:31:03;92518.28;;;11.76
76895;BMP280;65855;42.030;13.078;2023-04-03T15:33:29;92524.03;;;11.85
76895;BMP280;65855;42.030;13.078;2023-04-03T15:35:55;92513.47;;;11.51
76895;BMP280;65855;42.030;13.078;2023-04-03T15:38:20;92522.50;;;11.92
76895;BMP280;65855;42.030;13.078;2023-04-03T15:40:46;92526.91;;;11.75
76895;BMP280;65855;42.030;13.078;2023-04-03T15:43:12;92530.84;;;11.44
76895;BMP280;65855;42.030;13.078;2023-04-03T15:45:38;92524.03;;;11.16
76895;BMP280;65855;42.030;13.078;2023-04-03T15:48:04;92529.59;;;11.02
76895;BMP280;65855;42.030;13.078;2023-04-03T15:50:31;92531.06;;;11.03
76895;BMP280;65855;42.030;13.078;2023-04-03T15:52:57;92522.56;;;10.87
76895;BMP280;65855;42.030;13.078;2023-04-03T15:55:31;92522.03;;;11.02
76895;BMP280;65855;42.030;13.078;2023-04-03T15:57:56;92536.69;;;10.71
76895;BMP280;65855;42.030;13.078;2023-04-03T16:00:22;92535.25;;;10.54
76895;BMP280;65855;42.030;13.078;2023-04-03T16:02:50;92532.06;;;10.73
76895;BMP280;65855;42.030;13.078;2023-04-03T16:05:16;92534.06;;;10.59
76895;BMP280;65855;42.030;13.078;2023-04-03T16:07:43;92530.69;;;10.56
76895;BMP280;65855;42.030;13.078;2023-04-03T16:10:09;92540.91;;;10.51
76895;BMP280;65855;42.030;13.078;2023-04-03T16:12:35;92539.72;;;10.56
76895;BMP280;65855;42.030;13.078;2023-04-03T16:15:00;92537.72;;;10.25